Terminal Aerodrome Forecast
Issued by NWS

Home | Current Version | Previous Version | Text Only | Print | Product List | Glossary Off
Versions: 1 2 3 4 5 6 7 8 9 10 11 12 13 14 15 16

000
FTUS45 KGGW 161700
TAFOLF
TAF
KOLF 161736Z 1618/1718 07008KT P6SM OVC021
     FM162100 08008KT P6SM SCT021 OVC050
     FM170300 08011KT P6SM BKN040
     FM170900 09010KT P6SM OVC007=

USA.gov is the U.S. government's official web portal to all federal, state and local government web resources and services.